createdAt,value
2019-01-16T00:00:13.432Z,14.67
2019-01-16T00:02:58.842Z,12.87
2019-01-16T00:05:33.415Z,11.47
2019-01-16T00:08:13.949Z,11.83
2019-01-16T00:11:01.610Z,13.70
2019-01-16T00:13:52.817Z,14.77
2019-01-16T00:16:27.396Z,14.07
2019-01-16T00:19:16.795Z,10.90
2019-01-16T00:21:48.124Z,11.67
2019-01-16T00:24:19.647Z,14.60
2019-01-16T00:27:03.551Z,14.63
2019-01-16T00:29:35.099Z,12.37
2019-01-16T00:32:06.961Z,15.27
2019-01-16T00:34:38.892Z,15.47
2019-01-16T00:37:10.271Z,14.37
2019-01-16T00:39:54.608Z,12.97
2019-01-16T00:42:29.734Z,15.10
2019-01-16T00:45:04.365Z,14.73
2019-01-16T00:47:44.635Z,14.37
2019-01-16T00:50:25.422Z,14.77
2019-01-16T00:53:04.579Z,13.67
2019-01-16T00:55:38.810Z,12.63
2019-01-16T00:58:10.267Z,14.80
2019-01-16T01:00:44.643Z,15.10
2019-01-16T01:06:21.304Z,12.07
2019-01-16T01:09:10.651Z,13.67
2019-01-16T01:11:47.965Z,12.87
2019-01-16T01:14:31.278Z,12.80
2019-01-16T01:17:02.747Z,13.10
2019-01-16T01:19:36.793Z,15.00
2019-01-16T01:22:10.702Z,13.73
2019-01-16T01:24:48.994Z,11.63
2019-01-16T01:27:36.610Z,11.63
2019-01-16T01:30:10.934Z,15.43
2019-01-16T01:32:51.159Z,13.13
2019-01-16T01:35:39.506Z,13.37
2019-01-16T01:38:25.887Z,12.90
2019-01-16T01:41:19.033Z,12.40
2019-01-16T01:43:56.547Z,15.07
2019-01-16T01:46:45.819Z,12.90
2019-01-16T01:49:23.135Z,13.80
2019-01-16T01:52:03.715Z,14.37
2019-01-16T01:54:35.215Z,13.70
2019-01-16T01:57:08.115Z,10.37
2019-01-16T01:59:51.594Z,12.57
2019-01-16T02:02:39.504Z,11.83
2019-01-16T02:05:20.014Z,8.47
2019-01-16T02:07:57.400Z,12.33
2019-01-16T02:10:29.885Z,13.27
2019-01-16T02:13:10.306Z,14.60
2019-01-16T02:15:47.675Z,8.87
2019-01-16T02:18:27.931Z,13.00
2019-01-16T02:21:07.960Z,10.60
2019-01-16T02:24:13.594Z,12.57
2019-01-16T02:27:01.299Z,12.87
2019-01-16T02:29:36.698Z,11.17
2019-01-16T02:32:22.901Z,11.53
2019-01-16T02:35:04.361Z,13.13
2019-01-16T02:37:41.833Z,10.00
2019-01-16T02:40:22.202Z,10.77
2019-01-16T02:42:59.431Z,10.80
2019-01-16T02:45:33.547Z,15.10
2019-01-16T02:48:08.582Z,12.87
2019-01-16T02:50:40.027Z,12.63
2019-01-16T02:53:11.523Z,13.07
2019-01-16T02:55:45.667Z,14.07
2019-01-16T02:58:27.676Z,12.23
2019-01-16T03:04:10.863Z,9.47
2019-01-16T03:07:00.309Z,11.77
2019-01-16T03:09:31.770Z,10.70
2019-01-16T03:12:03.212Z,8.80
2019-01-16T03:14:40.550Z,10.23
2019-01-16T03:17:14.126Z,8.17
2019-01-16T03:19:48.551Z,10.93
2019-01-16T03:22:22.994Z,14.47
2019-01-16T03:25:00.459Z,10.63
2019-01-16T03:27:48.375Z,11.83
2019-01-16T03:30:35.062Z,13.50
2019-01-16T03:33:21.782Z,11.83
2019-01-16T03:35:58.854Z,11.90
2019-01-16T03:38:36.571Z,10.57
2019-01-16T03:41:14.131Z,10.90
2019-01-16T03:43:57.811Z,11.07
2019-01-16T03:46:36.547Z,11.27
2019-01-16T03:49:37.536Z,10.70
2019-01-16T03:52:20.659Z,10.70
2019-01-16T03:55:04.334Z,11.20
2019-01-16T03:57:38.779Z,10.40
2019-01-16T04:00:33.375Z,13.40
2019-01-16T04:03:20.651Z,6.83
2019-01-16T04:05:54.621Z,11.73
2019-01-16T04:08:26.078Z,12.37
2019-01-16T04:11:09.652Z,11.13
2019-01-16T04:13:44.411Z,12.33
2019-01-16T04:16:15.816Z,13.37
2019-01-16T04:18:59.452Z,12.60
2019-01-16T04:21:33.571Z,11.63
2019-01-16T04:24:14.032Z,12.97
2019-01-16T04:26:46.098Z,11.40
2019-01-16T04:29:32.561Z,11.70
2019-01-16T04:32:09.819Z,13.43
2019-01-16T04:34:44.065Z,11.73
2019-01-16T04:37:15.460Z,12.00
2019-01-16T04:39:48.391Z,11.97
2019-01-16T04:42:24.635Z,11.27
2019-01-16T04:45:04.312Z,11.90
2019-01-16T04:47:47.462Z,12.63
2019-01-16T04:50:25.903Z,8.53
2019-01-16T04:53:03.151Z,12.40
2019-01-16T04:55:43.863Z,9.77
2019-01-16T04:58:15.226Z,14.00
2019-01-16T05:00:46.692Z,11.33
2019-01-16T05:03:26.881Z,12.30
2019-01-16T05:06:02.334Z,14.47
2019-01-16T05:08:36.646Z,11.17
2019-01-16T05:11:10.814Z,10.10
2019-01-16T05:13:58.208Z,12.87
2019-01-16T05:16:47.691Z,11.73
2019-01-16T05:19:38.799Z,11.03
2019-01-16T05:22:08.581Z,10.73
2019-01-16T05:24:45.987Z,12.23
2019-01-16T05:27:33.610Z,11.47
2019-01-16T05:30:04.994Z,6.60
2019-01-16T05:32:45.488Z,9.63
2019-01-16T05:35:22.657Z,8.63
2019-01-16T05:37:59.573Z,9.90
2019-01-16T05:40:47.474Z,9.73
2019-01-16T05:43:18.909Z,10.70
2019-01-16T05:46:08.670Z,11.00
2019-01-16T05:48:46.418Z,10.57
2019-01-16T05:51:17.789Z,8.43
2019-01-16T05:54:05.409Z,10.03
2019-01-16T05:56:45.780Z,10.27
2019-01-16T05:59:32.251Z,11.00
2019-01-16T06:02:09.663Z,8.90
2019-01-16T06:04:44.127Z,9.60
2019-01-16T06:07:15.571Z,10.60
2019-01-16T06:10:08.062Z,10.77
2019-01-16T06:12:39.465Z,9.90
2019-01-16T06:15:19.687Z,11.40
2019-01-16T06:17:54.134Z,13.87
2019-01-16T06:20:30.573Z,10.70
2019-01-16T06:23:20.063Z,11.57
2019-01-16T06:25:57.316Z,11.70
2019-01-16T06:28:34.855Z,12.13
2019-01-16T06:31:15.349Z,11.07
2019-01-16T06:34:01.513Z,11.83
2019-01-16T06:36:48.874Z,12.30
2019-01-16T06:39:37.831Z,11.60
2019-01-16T06:42:09.227Z,10.70
2019-01-16T06:44:57.058Z,10.07
2019-01-16T06:47:29.986Z,12.20
2019-01-16T06:50:07.575Z,12.67
2019-01-16T06:52:53.958Z,11.67
2019-01-16T06:55:25.402Z,10.10
2019-01-16T06:57:59.851Z,13.63
2019-01-16T07:00:33.852Z,14.90
2019-01-16T07:03:11.330Z,13.73
2019-01-16T07:05:59.055Z,14.20
2019-01-16T07:08:33.295Z,13.33
2019-01-16T07:11:07.494Z,14.47
2019-01-16T07:13:38.986Z,14.00
2019-01-16T07:16:19.647Z,12.43
2019-01-16T07:19:07.043Z,15.43
2019-01-16T07:21:54.788Z,14.43
2019-01-16T07:24:26.189Z,17.10
2019-01-16T07:27:12.906Z,14.73
2019-01-16T07:29:47.435Z,16.03
2019-01-16T07:32:24.832Z,11.53
2019-01-16T07:35:05.615Z,15.77
2019-01-16T07:37:55.359Z,16.37
2019-01-16T07:40:32.974Z,14.90
2019-01-16T07:43:13.498Z,13.73
2019-01-16T07:45:44.923Z,15.20
2019-01-16T07:48:19.188Z,15.17
2019-01-16T07:51:02.587Z,18.10
2019-01-16T07:53:40.022Z,17.10
2019-01-16T07:56:29.394Z,16.50
2019-01-16T07:59:21.739Z,21.00
2019-01-16T08:01:51.296Z,16.20
2019-01-16T08:04:41.611Z,14.77
2019-01-16T08:07:22.300Z,18.00
2019-01-16T08:10:05.660Z,14.93
2019-01-16T08:12:49.381Z,16.30
2019-01-16T08:15:37.308Z,39.67
2019-01-16T08:18:17.792Z,18.60
2019-01-16T08:20:52.060Z,16.37
2019-01-16T08:23:23.507Z,15.33
2019-01-16T08:26:02.369Z,17.40
2019-01-16T08:28:34.520Z,14.73
2019-01-16T08:31:15.190Z,13.47
2019-01-16T08:33:46.940Z,18.63
2019-01-16T08:36:30.632Z,17.20
2019-01-16T08:39:10.720Z,17.17
2019-01-16T08:41:45.278Z,15.37
2019-01-16T08:44:22.645Z,16.13
2019-01-16T08:47:03.011Z,18.63
2019-01-16T08:49:37.032Z,17.80
2019-01-16T08:52:23.740Z,14.63
2019-01-16T08:54:57.813Z,18.77
2019-01-16T08:57:45.492Z,17.47
2019-01-16T09:00:23.633Z,17.43
2019-01-16T09:02:55.153Z,19.13
2019-01-16T09:05:43.813Z,19.43
2019-01-16T09:08:31.381Z,15.40
2019-01-16T09:11:06.453Z,16.23
2019-01-16T09:13:40.750Z,15.63
2019-01-16T09:16:15.321Z,15.23
2019-01-16T09:19:04.843Z,20.10
2019-01-16T09:21:51.295Z,20.30
2019-01-16T09:24:29.330Z,21.43
2019-01-16T09:27:03.479Z,19.17
2019-01-16T09:29:52.919Z,20.60
2019-01-16T09:32:24.361Z,21.23
2019-01-16T09:34:58.182Z,21.03
2019-01-16T09:37:38.822Z,22.27
2019-01-16T09:40:18.984Z,19.87
2019-01-16T09:42:56.704Z,19.70
2019-01-16T09:45:32.412Z,17.57
2019-01-16T09:48:11.472Z,18.20
2019-01-16T09:50:49.952Z,19.37
2019-01-16T09:53:25.292Z,23.20
2019-01-16T09:56:01.736Z,19.50
2019-01-16T09:58:41.974Z,22.87
2019-01-16T10:01:13.419Z,22.27
2019-01-16T10:04:04.440Z,21.60
2019-01-16T10:07:16.621Z,19.77
2019-01-16T10:12:56.726Z,25.70
2019-01-16T10:15:47.360Z,24.67
2019-01-16T10:18:21.621Z,26.03
2019-01-16T10:20:56.062Z,24.97
2019-01-16T10:23:27.902Z,26.53
2019-01-16T10:25:59.600Z,25.73
2019-01-16T10:28:35.230Z,24.73
2019-01-16T10:31:22.300Z,27.73
2019-01-16T10:33:56.727Z,26.30
2019-01-16T10:36:48.434Z,27.03
2019-01-16T10:39:41.101Z,22.50
2019-01-16T10:42:15.916Z,27.07
2019-01-16T10:44:57.940Z,27.23
2019-01-16T10:47:29.978Z,22.87
2019-01-16T10:50:13.857Z,26.90
2019-01-16T10:52:51.062Z,25.90
2019-01-16T10:55:35.198Z,25.30
2019-01-16T10:58:24.421Z,24.73
2019-01-16T11:01:01.756Z,24.10
2019-01-16T11:03:38.825Z,25.77
2019-01-16T11:06:21.934Z,24.20
2019-01-16T11:08:56.215Z,27.73
2019-01-16T11:11:36.509Z,24.27
2019-01-16T11:14:08.355Z,26.60
2019-01-16T11:16:56.870Z,27.20
2019-01-16T11:19:47.114Z,25.17
2019-01-16T11:22:25.075Z,26.70
2019-01-16T11:25:15.078Z,25.93
2019-01-16T11:27:48.931Z,25.57
2019-01-16T11:30:23.840Z,22.73
2019-01-16T11:33:04.003Z,25.93
2019-01-16T11:35:55.340Z,24.40
2019-01-16T11:38:28.600Z,24.60
2019-01-16T11:41:02.776Z,24.73
2019-01-16T11:43:51.690Z,26.03
2019-01-16T11:46:24.124Z,26.27
2019-01-16T11:49:11.941Z,24.27
2019-01-16T11:51:46.894Z,25.57
2019-01-16T11:54:34.917Z,22.27
2019-01-16T11:57:10.588Z,24.33
2019-01-16T11:59:47.813Z,24.43
2019-01-16T12:02:22.516Z,23.97
2019-01-16T12:05:10.958Z,25.87
2019-01-16T12:07:48.540Z,24.53
2019-01-16T12:10:33.960Z,23.17
2019-01-16T12:13:13.837Z,20.67
2019-01-16T12:16:04.232Z,15.33
2019-01-16T12:18:52.993Z,21.83
2019-01-16T12:21:41.356Z,20.07
2019-01-16T12:24:19.019Z,21.47
2019-01-16T12:27:02.709Z,19.43
2019-01-16T12:29:35.558Z,17.97
2019-01-16T12:32:06.920Z,20.37
2019-01-16T12:34:38.718Z,19.70
2019-01-16T12:37:28.414Z,19.03
2019-01-16T12:40:03.091Z,21.00
2019-01-16T12:42:36.094Z,20.87
2019-01-16T12:45:24.796Z,18.67
2019-01-16T12:48:01.777Z,20.33
2019-01-16T12:50:51.244Z,20.40
2019-01-16T12:53:29.013Z,18.33
2019-01-16T12:56:00.728Z,18.17
2019-01-16T12:58:47.142Z,22.27
2019-01-16T13:01:19.190Z,19.87
2019-01-16T13:04:09.386Z,21.97
2019-01-16T13:06:58.292Z,22.40
2019-01-16T13:09:42.474Z,21.93
2019-01-16T13:12:15.158Z,22.27
2019-01-16T13:14:49.536Z,22.30
2019-01-16T13:17:24.775Z,22.33
2019-01-16T13:20:16.495Z,23.33
2019-01-16T13:23:01.909Z,22.90
2019-01-16T13:25:48.847Z,23.53
2019-01-16T13:28:38.773Z,24.83
2019-01-16T13:31:27.713Z,25.47
2019-01-16T13:33:59.411Z,27.07
2019-01-16T13:36:34.038Z,25.77
2019-01-16T13:39:24.554Z,24.53
2019-01-16T13:41:58.597Z,23.83
2019-01-16T13:44:47.012Z,23.50
2019-01-16T13:47:28.052Z,24.17
2019-01-16T13:50:06.822Z,25.37
2019-01-16T13:52:48.082Z,24.57
2019-01-16T13:55:23.766Z,22.93
2019-01-16T13:58:13.256Z,23.27
2019-01-16T14:00:56.128Z,24.10
2019-01-16T14:03:31.540Z,21.90
2019-01-16T14:06:03.772Z,21.73
2019-01-16T14:08:43.874Z,23.90
2019-01-16T14:11:17.624Z,21.60
2019-01-16T14:14:00.682Z,19.90
2019-01-16T14:16:39.026Z,23.70
2019-01-16T14:19:18.094Z,23.43
2019-01-16T14:22:08.780Z,26.83
2019-01-16T14:25:01.204Z,23.27
2019-01-16T14:27:38.640Z,20.07
2019-01-16T14:30:16.481Z,20.70
2019-01-16T14:32:51.739Z,19.40
2019-01-16T14:35:24.256Z,20.50
2019-01-16T14:38:12.502Z,20.67
2019-01-16T14:40:48.096Z,22.07
2019-01-16T14:43:37.603Z,23.17
2019-01-16T14:46:11.884Z,22.17
2019-01-16T14:48:44.985Z,22.50
2019-01-16T14:51:20.852Z,21.30
2019-01-16T14:53:57.012Z,25.07
2019-01-16T14:56:34.442Z,18.50
2019-01-16T14:59:24.522Z,21.17
2019-01-16T15:02:16.007Z,20.90
2019-01-16T15:05:03.716Z,20.87
2019-01-16T15:07:38.284Z,20.40
2019-01-16T15:10:12.703Z,21.30
2019-01-16T15:12:45.616Z,22.47
2019-01-16T15:15:22.996Z,21.77
2019-01-16T15:17:57.609Z,22.10
2019-01-16T15:20:39.680Z,22.23
2019-01-16T15:23:15.198Z,20.77
2019-01-16T15:25:48.877Z,20.13
2019-01-16T15:28:39.320Z,20.77
2019-01-16T15:31:13.199Z,21.07
2019-01-16T15:33:48.920Z,16.60
2019-01-16T15:36:29.486Z,18.53
2019-01-16T15:39:04.936Z,16.67
2019-01-16T15:41:45.804Z,17.43
2019-01-16T15:44:20.993Z,17.47
2019-01-16T15:46:55.812Z,18.20
2019-01-16T15:49:27.402Z,17.47
2019-01-16T15:51:58.824Z,18.47
2019-01-16T15:54:30.379Z,16.17
2019-01-16T15:57:13.503Z,20.10
2019-01-16T15:59:50.940Z,20.63
2019-01-16T16:02:46.641Z,19.40
2019-01-16T16:08:18.992Z,23.60
2019-01-16T16:16:55.742Z,25.63
2019-01-16T16:19:37.733Z,26.67
2019-01-16T16:22:37.128Z,21.23
2019-01-16T16:25:30.294Z,26.93
2019-01-16T16:31:22.955Z,21.40
2019-01-16T16:33:57.038Z,23.00
2019-01-16T16:36:31.478Z,21.30
2019-01-16T16:39:09.867Z,24.33
2019-01-16T16:41:42.112Z,23.40
2019-01-16T16:44:20.456Z,24.37
2019-01-16T16:46:58.617Z,23.40
2019-01-16T16:49:41.835Z,24.57
2019-01-16T16:52:28.179Z,23.43
2019-01-16T16:54:59.536Z,24.10
2019-01-16T16:57:44.263Z,26.47
2019-01-16T17:00:19.342Z,24.13
2019-01-16T17:02:52.122Z,25.70
2019-01-16T17:05:26.462Z,25.70
2019-01-16T17:07:57.872Z,25.63
2019-01-16T17:10:41.453Z,27.57
2019-01-16T17:13:13.920Z,24.53
2019-01-16T17:15:59.246Z,24.77
2019-01-16T17:18:28.373Z,23.50
2019-01-16T17:21:12.293Z,23.90
2019-01-16T17:23:50.993Z,23.13
2019-01-16T17:26:31.944Z,25.20
2019-01-16T17:29:19.672Z,24.70
2019-01-16T17:31:55.524Z,25.63
2019-01-16T17:34:31.852Z,27.20
2019-01-16T17:37:15.323Z,26.90
2019-01-16T17:39:51.985Z,24.37
2019-01-16T17:42:29.497Z,32.90
2019-01-16T17:45:19.761Z,25.63
2019-01-16T17:48:08.762Z,29.73
2019-01-16T17:50:56.252Z,28.93
2019-01-16T17:53:30.271Z,32.10
2019-01-16T17:56:02.497Z,31.30
2019-01-16T17:58:48.224Z,32.80
2019-01-16T18:01:19.642Z,33.43
2019-01-16T18:04:08.092Z,35.47
2019-01-16T18:06:56.000Z,32.70
2019-01-16T18:09:30.244Z,37.10
2019-01-16T18:12:16.864Z,37.87
2019-01-16T18:15:06.221Z,36.30
2019-01-16T18:17:54.400Z,39.07
2019-01-16T18:20:42.200Z,37.30
2019-01-16T18:23:13.735Z,38.67
2019-01-16T18:25:46.348Z,45.33
2019-01-16T18:28:20.886Z,40.80
2019-01-16T18:31:13.313Z,43.70
2019-01-16T18:33:45.828Z,44.83
2019-01-16T18:36:20.404Z,47.37
2019-01-16T18:39:06.872Z,45.30
2019-01-16T18:41:56.252Z,47.17
2019-01-16T18:44:45.972Z,46.87
2019-01-16T18:47:23.731Z,47.80
2019-01-16T18:50:10.524Z,46.10
2019-01-16T18:52:56.222Z,46.93
2019-01-16T18:55:42.802Z,45.43
2019-01-16T18:58:15.915Z,45.33
2019-01-16T19:00:50.239Z,46.03
2019-01-16T19:03:24.652Z,43.20
2019-01-16T19:06:00.858Z,41.50
2019-01-16T19:08:49.378Z,46.97
2019-01-16T19:11:27.123Z,44.63
2019-01-16T19:14:07.098Z,51.57
2019-01-16T19:16:47.940Z,44.80
2019-01-16T19:19:31.332Z,43.93
2019-01-16T19:22:21.708Z,41.60
2019-01-16T19:25:08.782Z,41.13
2019-01-16T19:27:57.872Z,47.40
2019-01-16T19:30:35.251Z,45.20
2019-01-16T19:33:07.315Z,47.13
2019-01-16T19:35:50.271Z,44.73
2019-01-16T19:38:31.112Z,44.43
2019-01-16T19:41:05.576Z,45.70
2019-01-16T19:43:49.811Z,47.20
2019-01-16T19:46:37.695Z,43.03
2019-01-16T19:49:11.196Z,41.10
2019-01-16T19:51:48.412Z,46.53
2019-01-16T19:54:37.890Z,43.67
2019-01-16T19:57:19.695Z,42.13
2019-01-16T19:59:55.941Z,41.40
2019-01-16T20:02:36.604Z,37.37
2019-01-16T20:05:25.214Z,47.47
2019-01-16T20:08:00.205Z,37.77
2019-01-16T20:10:32.334Z,39.30
2019-01-16T20:13:22.172Z,43.33
2019-01-16T20:16:10.452Z,38.00
2019-01-16T20:18:46.693Z,35.43
2019-01-16T20:21:25.361Z,41.20
2019-01-16T20:24:09.576Z,39.50
2019-01-16T20:26:43.057Z,39.73
2019-01-16T20:29:18.175Z,37.60
2019-01-16T20:31:50.473Z,35.37
2019-01-16T20:34:30.967Z,35.40
2019-01-16T20:37:11.184Z,37.03
2019-01-16T20:40:00.726Z,36.27
2019-01-16T20:42:37.333Z,37.40
2019-01-16T20:45:16.991Z,38.03
2019-01-16T20:47:58.295Z,34.90
2019-01-16T20:50:33.743Z,37.17
2019-01-16T20:53:17.455Z,32.90
2019-01-16T20:55:52.264Z,30.70
2019-01-16T20:58:42.012Z,29.03
2019-01-16T21:01:29.072Z,30.60
2019-01-16T21:04:11.592Z,29.23
2019-01-16T21:06:50.303Z,33.43
2019-01-16T21:09:29.640Z,31.37
2019-01-16T21:12:11.956Z,31.13
2019-01-16T21:14:56.354Z,35.87
2019-01-16T21:17:48.993Z,36.17
2019-01-16T21:20:27.638Z,38.37
2019-01-16T21:23:03.888Z,35.90
2019-01-16T21:25:42.138Z,34.40
2019-01-16T21:28:30.302Z,33.60
2019-01-16T21:31:11.739Z,35.23
2019-01-16T21:33:46.695Z,36.73
2019-01-16T21:36:19.406Z,35.53
2019-01-16T21:39:00.402Z,35.70
2019-01-16T21:41:42.152Z,36.00
2019-01-16T21:44:32.789Z,35.67
2019-01-16T21:47:04.416Z,38.20
2019-01-16T21:49:48.851Z,31.23
2019-01-16T21:52:27.172Z,36.03
2019-01-16T21:54:58.622Z,38.70
2019-01-16T21:57:34.474Z,33.97
2019-01-16T22:00:14.912Z,37.03
2019-01-16T22:02:50.940Z,34.00
2019-01-16T22:05:28.282Z,32.93
2019-01-16T22:08:15.536Z,35.47
2019-01-16T22:11:02.245Z,35.97
2019-01-16T22:13:39.872Z,38.17
2019-01-16T22:16:27.349Z,35.63
2019-01-16T22:19:18.502Z,32.13
2019-01-16T22:22:06.404Z,31.37
2019-01-16T22:24:38.692Z,33.27
2019-01-16T22:27:27.830Z,35.00
2019-01-16T22:30:08.701Z,33.17
2019-01-16T22:32:42.838Z,33.23
2019-01-16T22:35:35.467Z,32.20
2019-01-16T22:38:16.612Z,34.60
2019-01-16T22:40:52.646Z,34.67
2019-01-16T22:43:28.684Z,34.80
2019-01-16T22:46:01.187Z,34.67
2019-01-16T22:48:37.288Z,35.40
2019-01-16T22:51:23.909Z,35.03
2019-01-16T22:53:58.765Z,34.43
2019-01-16T22:56:46.687Z,33.77
2019-01-16T22:59:19.527Z,36.10
2019-01-16T23:02:06.771Z,35.10
2019-01-16T23:04:45.678Z,33.70
2019-01-16T23:07:27.831Z,38.90
2019-01-16T23:10:08.008Z,36.27
2019-01-16T23:12:40.573Z,34.73
2019-01-16T23:15:20.375Z,41.17
2019-01-16T23:17:57.010Z,40.10
2019-01-16T23:20:34.099Z,43.13
2019-01-16T23:23:21.424Z,37.87
2019-01-16T23:26:02.099Z,34.83
2019-01-16T23:28:36.323Z,33.67
2019-01-16T23:31:18.095Z,40.73
2019-01-16T23:33:52.280Z,33.00
2019-01-16T23:36:34.118Z,36.00
2019-01-16T23:39:09.357Z,32.13
2019-01-16T23:41:47.105Z,36.13
2019-01-16T23:44:21.924Z,37.50
2019-01-16T23:46:59.602Z,36.37
2019-01-16T23:49:40.175Z,35.90
2019-01-16T23:52:13.283Z,36.23
2019-01-16T23:54:45.798Z,35.60
2019-01-16T23:57:35.717Z,36.57
